sensor_id;sensor_type;location;lat;lon;timestamp;pressure;altitude;pressure_sealevel;temperature
70050;BMP180;57391;51.306;22.680;2022-12-18T00:03:55;100720.60;;;-5.22
70050;BMP180;57391;51.306;22.680;2022-12-18T00:06:23;100728.20;;;-5.28
70050;BMP180;57391;51.306;22.680;2022-12-18T00:08:50;100728.20;;;-5.30
70050;BMP180;57391;51.306;22.680;2022-12-18T00:11:21;100737.00;;;-5.30
70050;BMP180;57391;51.306;22.680;2022-12-18T00:13:48;100736.80;;;-5.30
70050;BMP180;57391;51.306;22.680;2022-12-18T00:16:19;100742.20;;;-5.30
70050;BMP180;57391;51.306;22.680;2022-12-18T00:18:53;100748.40;;;-5.30
70050;BMP180;57391;51.306;22.680;2022-12-18T00:21:21;100747.80;;;-5.20
70050;BMP180;57391;51.306;22.680;2022-12-18T00:23:49;100758.40;;;-5.20
70050;BMP180;57391;51.306;22.680;2022-12-18T00:26:23;100765.00;;;-5.20
70050;BMP180;57391;51.306;22.680;2022-12-18T00:28:51;100769.40;;;-5.20
70050;BMP180;57391;51.306;22.680;2022-12-18T00:31:24;100765.20;;;-5.26
70050;BMP180;57391;51.306;22.680;2022-12-18T00:33:55;100766.00;;;-5.26
70050;BMP180;57391;51.306;22.680;2022-12-18T00:36:32;100767.00;;;-5.24
70050;BMP180;57391;51.306;22.680;2022-12-18T00:39:05;100771.20;;;-5.20
70050;BMP180;57391;51.306;22.680;2022-12-18T00:41:32;100777.60;;;-5.22
70050;BMP180;57391;51.306;22.680;2022-12-18T00:44:18;100782.80;;;-5.30
70050;BMP180;57391;51.306;22.680;2022-12-18T00:46:46;100786.40;;;-5.40
70050;BMP180;57391;51.306;22.680;2022-12-18T00:49:16;100791.60;;;-5.40
70050;BMP180;57391;51.306;22.680;2022-12-18T00:51:43;100792.80;;;-5.46
70050;BMP180;57391;51.306;22.680;2022-12-18T00:54:10;100792.00;;;-5.50
70050;BMP180;57391;51.306;22.680;2022-12-18T00:56:39;100796.00;;;-5.54
70050;BMP180;57391;51.306;22.680;2022-12-18T00:59:05;100790.20;;;-5.60
70050;BMP180;57391;51.306;22.680;2022-12-18T01:01:32;100790.40;;;-5.60
70050;BMP180;57391;51.306;22.680;2022-12-18T01:04:01;100796.80;;;-5.60
70050;BMP180;57391;51.306;22.680;2022-12-18T01:06:29;100793.80;;;-5.60
70050;BMP180;57391;51.306;22.680;2022-12-18T01:08:55;100796.40;;;-5.50
70050;BMP180;57391;51.306;22.680;2022-12-18T01:11:23;100798.60;;;-5.52
70050;BMP180;57391;51.306;22.680;2022-12-18T01:13:53;100804.40;;;-5.52
70050;BMP180;57391;51.306;22.680;2022-12-18T01:16:22;100813.20;;;-5.60
70050;BMP180;57391;51.306;22.680;2022-12-18T01:18:54;100808.20;;;-5.60
70050;BMP180;57391;51.306;22.680;2022-12-18T01:21:22;100817.80;;;-5.52
70050;BMP180;57391;51.306;22.680;2022-12-18T01:23:56;100821.60;;;-5.50
70050;BMP180;57391;51.306;22.680;2022-12-18T01:26:24;100821.40;;;-5.50
70050;BMP180;57391;51.306;22.680;2022-12-18T01:28:51;100825.20;;;-5.60
70050;BMP180;57391;51.306;22.680;2022-12-18T01:31:26;100829.20;;;-5.60
70050;BMP180;57391;51.306;22.680;2022-12-18T01:33:55;100830.60;;;-5.60
70050;BMP180;57391;51.306;22.680;2022-12-18T01:36:29;100832.40;;;-5.60
70050;BMP180;57391;51.306;22.680;2022-12-18T01:38:56;100839.20;;;-5.54
70050;BMP180;57391;51.306;22.680;2022-12-18T01:41:28;100839.80;;;-5.60
70050;BMP180;57391;51.306;22.680;2022-12-18T01:45:02;100837.80;;;-5.60
70050;BMP180;57391;51.306;22.680;2022-12-18T01:47:41;100845.60;;;-5.60
70050;BMP180;57391;51.306;22.680;2022-12-18T01:50:25;100843.60;;;-5.60
70050;BMP180;57391;51.306;22.680;2022-12-18T01:55:52;100844.40;;;-5.60
70050;BMP180;57391;51.306;22.680;2022-12-18T01:58:25;100851.00;;;-5.56
70050;BMP180;57391;51.306;22.680;2022-12-18T02:00:55;100845.40;;;-5.60
70050;BMP180;57391;51.306;22.680;2022-12-18T02:03:21;100853.80;;;-5.60
70050;BMP180;57391;51.306;22.680;2022-12-18T02:08:48;100863.60;;;-5.60
70050;BMP180;57391;51.306;22.680;2022-12-18T02:14:44;100879.80;;;-5.68
70050;BMP180;57391;51.306;22.680;2022-12-18T02:17:22;100877.20;;;-5.70
70050;BMP180;57391;51.306;22.680;2022-12-18T02:20:19;100880.80;;;-5.68
70050;BMP180;57391;51.306;22.680;2022-12-18T02:23:12;100884.20;;;-5.60
70050;BMP180;57391;51.306;22.680;2022-12-18T02:28:36;100882.60;;;-5.60
70050;BMP180;57391;51.306;22.680;2022-12-18T02:31:13;100892.60;;;-5.52
70050;BMP180;57391;51.306;22.680;2022-12-18T02:33:44;100893.60;;;-5.56
70050;BMP180;57391;51.306;22.680;2022-12-18T02:36:14;100901.00;;;-5.60
70050;BMP180;57391;51.306;22.680;2022-12-18T02:38:45;100910.40;;;-5.60
70050;BMP180;57391;51.306;22.680;2022-12-18T02:41:15;100910.00;;;-5.50
70050;BMP180;57391;51.306;22.680;2022-12-18T02:43:53;100916.20;;;-5.50
70050;BMP180;57391;51.306;22.680;2022-12-18T02:46:37;100919.60;;;-5.42
70050;BMP180;57391;51.306;22.680;2022-12-18T02:58:26;100914.80;;;-5.30
70050;BMP180;57391;51.306;22.680;2022-12-18T03:01:15;100917.60;;;-5.30
70050;BMP180;57391;51.306;22.680;2022-12-18T03:03:55;100920.00;;;-5.20
70050;BMP180;57391;51.306;22.680;2022-12-18T03:06:33;100922.20;;;-5.20
70050;BMP180;57391;51.306;22.680;2022-12-18T03:09:07;100922.20;;;-5.20
70050;BMP180;57391;51.306;22.680;2022-12-18T03:11:41;100922.20;;;-5.20
70050;BMP180;57391;51.306;22.680;2022-12-18T03:14:32;100925.80;;;-5.20
70050;BMP180;57391;51.306;22.680;2022-12-18T03:17:03;100935.00;;;-5.20
70050;BMP180;57391;51.306;22.680;2022-12-18T03:19:33;100931.40;;;-5.20
70050;BMP180;57391;51.306;22.680;2022-12-18T03:22:04;100937.00;;;-5.10
70050;BMP180;57391;51.306;22.680;2022-12-18T03:24:40;100942.40;;;-5.10
70050;BMP180;57391;51.306;22.680;2022-12-18T03:27:14;100942.00;;;-5.10
70050;BMP180;57391;51.306;22.680;2022-12-18T03:29:52;100943.60;;;-5.10
70050;BMP180;57391;51.306;22.680;2022-12-18T03:32:31;100946.00;;;-5.10
70050;BMP180;57391;51.306;22.680;2022-12-18T03:35:04;100949.60;;;-5.10
70050;BMP180;57391;51.306;22.680;2022-12-18T03:37:34;100951.20;;;-5.10
70050;BMP180;57391;51.306;22.680;2022-12-18T03:40:00;100949.20;;;-5.06
70050;BMP180;57391;51.306;22.680;2022-12-18T03:42:48;100956.00;;;-5.00
70050;BMP180;57391;51.306;22.680;2022-12-18T03:45:48;100967.00;;;-5.00
70050;BMP180;57391;51.306;22.680;2022-12-18T03:48:41;100960.40;;;-5.00
70050;BMP180;57391;51.306;22.680;2022-12-18T03:51:42;100979.00;;;-5.00
70050;BMP180;57391;51.306;22.680;2022-12-18T03:54:14;100981.20;;;-5.00
70050;BMP180;57391;51.306;22.680;2022-12-18T03:57:03;100986.80;;;-4.90
70050;BMP180;57391;51.306;22.680;2022-12-18T03:59:31;100985.00;;;-4.90
70050;BMP180;57391;51.306;22.680;2022-12-18T04:02:01;100988.40;;;-4.90
70050;BMP180;57391;51.306;22.680;2022-12-18T04:04:30;100994.00;;;-4.90
70050;BMP180;57391;51.306;22.680;2022-12-18T04:07:00;100993.80;;;-4.90
70050;BMP180;57391;51.306;22.680;2022-12-18T04:09:30;101004.60;;;-4.82
70050;BMP180;57391;51.306;22.680;2022-12-18T04:11:57;101006.20;;;-4.80
70050;BMP180;57391;51.306;22.680;2022-12-18T04:14:24;101012.40;;;-4.80
70050;BMP180;57391;51.306;22.680;2022-12-18T04:16:53;101005.20;;;-4.74
70050;BMP180;57391;51.306;22.680;2022-12-18T04:19:23;101010.00;;;-4.80
70050;BMP180;57391;51.306;22.680;2022-12-18T04:21:50;101007.00;;;-4.80
70050;BMP180;57391;51.306;22.680;2022-12-18T04:24:16;101004.00;;;-4.78
70050;BMP180;57391;51.306;22.680;2022-12-18T04:26:50;101009.00;;;-4.80
70050;BMP180;57391;51.306;22.680;2022-12-18T04:29:21;101012.80;;;-4.80
70050;BMP180;57391;51.306;22.680;2022-12-18T04:31:48;101020.80;;;-4.70
70050;BMP180;57391;51.306;22.680;2022-12-18T04:34:15;101023.60;;;-4.64
70050;BMP180;57391;51.306;22.680;2022-12-18T04:36:47;101027.00;;;-4.64
70050;BMP180;57391;51.306;22.680;2022-12-18T04:39:17;101032.60;;;-4.66
70050;BMP180;57391;51.306;22.680;2022-12-18T04:41:44;101039.40;;;-4.70
70050;BMP180;57391;51.306;22.680;2022-12-18T04:44:13;101038.60;;;-4.70
70050;BMP180;57391;51.306;22.680;2022-12-18T04:46:39;101048.00;;;-4.70
70050;BMP180;57391;51.306;22.680;2022-12-18T04:49:06;101048.40;;;-4.66
70050;BMP180;57391;51.306;22.680;2022-12-18T04:51:32;101055.80;;;-4.62
70050;BMP180;57391;51.306;22.680;2022-12-18T04:54:01;101055.40;;;-4.70
70050;BMP180;57391;51.306;22.680;2022-12-18T04:56:28;101055.60;;;-4.80
70050;BMP180;57391;51.306;22.680;2022-12-18T04:58:54;101056.20;;;-4.82
70050;BMP180;57391;51.306;22.680;2022-12-18T05:01:20;101063.80;;;-4.90
70050;BMP180;57391;51.306;22.680;2022-12-18T05:03:47;101064.20;;;-4.90
70050;BMP180;57391;51.306;22.680;2022-12-18T05:06:14;101064.20;;;-5.00
70050;BMP180;57391;51.306;22.680;2022-12-18T05:08:40;101074.80;;;-5.10
70050;BMP180;57391;51.306;22.680;2022-12-18T05:11:11;101074.40;;;-5.20
70050;BMP180;57391;51.306;22.680;2022-12-18T05:13:37;101082.00;;;-5.26
70050;BMP180;57391;51.306;22.680;2022-12-18T05:16:05;101091.00;;;-5.30
70050;BMP180;57391;51.306;22.680;2022-12-18T05:18:31;101091.20;;;-5.30
70050;BMP180;57391;51.306;22.680;2022-12-18T05:20:58;101091.20;;;-5.40
70050;BMP180;57391;51.306;22.680;2022-12-18T05:23:25;101100.60;;;-5.34
70050;BMP180;57391;51.306;22.680;2022-12-18T05:26:02;101103.40;;;-5.30
70050;BMP180;57391;51.306;22.680;2022-12-18T05:28:31;101109.40;;;-5.30
70050;BMP180;57391;51.306;22.680;2022-12-18T05:31:00;101106.20;;;-5.30
70050;BMP180;57391;51.306;22.680;2022-12-18T05:33:34;101109.20;;;-5.30
70050;BMP180;57391;51.306;22.680;2022-12-18T05:36:04;101109.40;;;-5.34
70050;BMP180;57391;51.306;22.680;2022-12-18T05:38:33;101114.20;;;-5.40
70050;BMP180;57391;51.306;22.680;2022-12-18T05:41:01;101110.00;;;-5.40
70050;BMP180;57391;51.306;22.680;2022-12-18T05:43:28;101117.00;;;-5.30
70050;BMP180;57391;51.306;22.680;2022-12-18T05:45:55;101122.80;;;-5.30
70050;BMP180;57391;51.306;22.680;2022-12-18T05:48:23;101126.20;;;-5.30
70050;BMP180;57391;51.306;22.680;2022-12-18T05:50:50;101135.00;;;-5.30
70050;BMP180;57391;51.306;22.680;2022-12-18T05:53:20;101134.00;;;-5.30
70050;BMP180;57391;51.306;22.680;2022-12-18T05:55:47;101134.80;;;-5.28
70050;BMP180;57391;51.306;22.680;2022-12-18T05:58:15;101144.20;;;-5.20
70050;BMP180;57391;51.306;22.680;2022-12-18T06:00:45;101137.60;;;-5.20
70050;BMP180;57391;51.306;22.680;2022-12-18T06:03:13;101143.80;;;-5.20
70050;BMP180;57391;51.306;22.680;2022-12-18T06:05:43;101149.80;;;-5.20
70050;BMP180;57391;51.306;22.680;2022-12-18T06:08:11;101156.80;;;-5.20
70050;BMP180;57391;51.306;22.680;2022-12-18T06:10:39;101164.00;;;-5.20
70050;BMP180;57391;51.306;22.680;2022-12-18T06:13:06;101169.00;;;-5.20
70050;BMP180;57391;51.306;22.680;2022-12-18T06:15:36;101166.60;;;-5.20
70050;BMP180;57391;51.306;22.680;2022-12-18T06:18:04;101168.00;;;-5.20
70050;BMP180;57391;51.306;22.680;2022-12-18T06:20:30;101173.40;;;-5.20
70050;BMP180;57391;51.306;22.680;2022-12-18T06:22:57;101174.60;;;-5.18
70050;BMP180;57391;51.306;22.680;2022-12-18T06:25:24;101185.80;;;-5.20
70050;BMP180;57391;51.306;22.680;2022-12-18T06:27:50;101195.80;;;-5.20
70050;BMP180;57391;51.306;22.680;2022-12-18T06:30:17;101196.00;;;-5.12
70050;BMP180;57391;51.306;22.680;2022-12-18T06:32:43;101199.80;;;-5.10
70050;BMP180;57391;51.306;22.680;2022-12-18T06:35:10;101207.00;;;-5.10
70050;BMP180;57391;51.306;22.680;2022-12-18T06:37:36;101209.60;;;-5.10
70050;BMP180;57391;51.306;22.680;2022-12-18T06:40:04;101213.60;;;-5.10
70050;BMP180;57391;51.306;22.680;2022-12-18T06:42:31;101213.40;;;-5.08
70050;BMP180;57391;51.306;22.680;2022-12-18T06:44:58;101212.00;;;-5.00
70050;BMP180;57391;51.306;22.680;2022-12-18T06:47:25;101222.20;;;-4.98
70050;BMP180;57391;51.306;22.680;2022-12-18T06:49:52;101227.60;;;-4.90
70050;BMP180;57391;51.306;22.680;2022-12-18T06:52:18;101230.80;;;-4.90
70050;BMP180;57391;51.306;22.680;2022-12-18T06:54:44;101229.20;;;-4.90
70050;BMP180;57391;51.306;22.680;2022-12-18T06:57:11;101237.80;;;-4.80
70050;BMP180;57391;51.306;22.680;2022-12-18T06:59:38;101232.80;;;-4.86
70050;BMP180;57391;51.306;22.680;2022-12-18T07:02:04;101232.60;;;-4.90
70050;BMP180;57391;51.306;22.680;2022-12-18T07:04:31;101236.60;;;-4.90
70050;BMP180;57391;51.306;22.680;2022-12-18T07:06:58;101237.20;;;-4.90
70050;BMP180;57391;51.306;22.680;2022-12-18T07:09:24;101243.20;;;-4.80
70050;BMP180;57391;51.306;22.680;2022-12-18T07:11:51;101241.40;;;-4.80
70050;BMP180;57391;51.306;22.680;2022-12-18T07:14:18;101248.40;;;-4.70
70050;BMP180;57391;51.306;22.680;2022-12-18T07:16:44;101253.80;;;-4.70
70050;BMP180;57391;51.306;22.680;2022-12-18T07:19:10;101258.20;;;-4.72
70050;BMP180;57391;51.306;22.680;2022-12-18T07:21:36;101263.00;;;-4.72
70050;BMP180;57391;51.306;22.680;2022-12-18T07:24:03;101274.60;;;-4.70
70050;BMP180;57391;51.306;22.680;2022-12-18T07:26:30;101275.00;;;-4.70
70050;BMP180;57391;51.306;22.680;2022-12-18T07:28:56;101278.60;;;-4.70
70050;BMP180;57391;51.306;22.680;2022-12-18T07:31:25;101288.00;;;-4.70
70050;BMP180;57391;51.306;22.680;2022-12-18T07:33:52;101297.00;;;-4.70
70050;BMP180;57391;51.306;22.680;2022-12-18T07:36:19;101294.20;;;-4.70
70050;BMP180;57391;51.306;22.680;2022-12-18T07:38:50;101297.20;;;-4.60
70050;BMP180;57391;51.306;22.680;2022-12-18T07:41:18;101304.00;;;-4.60
70050;BMP180;57391;51.306;22.680;2022-12-18T07:43:45;101306.00;;;-4.60
70050;BMP180;57391;51.306;22.680;2022-12-18T07:46:13;101310.00;;;-4.58
70050;BMP180;57391;51.306;22.680;2022-12-18T07:48:42;101325.20;;;-4.50
70050;BMP180;57391;51.306;22.680;2022-12-18T07:51:09;101324.80;;;-4.60
70050;BMP180;57391;51.306;22.680;2022-12-18T07:53:38;101327.20;;;-4.52
70050;BMP180;57391;51.306;22.680;2022-12-18T07:56:09;101324.40;;;-4.50
70050;BMP180;57391;51.306;22.680;2022-12-18T07:58:37;101328.40;;;-4.40
70050;BMP180;57391;51.306;22.680;2022-12-18T08:01:05;101330.40;;;-4.40
70050;BMP180;57391;51.306;22.680;2022-12-18T08:03:32;101325.60;;;-4.36
70050;BMP180;57391;51.306;22.680;2022-12-18T08:06:08;101330.40;;;-4.30
70050;BMP180;57391;51.306;22.680;2022-12-18T08:08:36;101336.20;;;-4.40
70050;BMP180;57391;51.306;22.680;2022-12-18T08:11:03;101338.00;;;-4.40
70050;BMP180;57391;51.306;22.680;2022-12-18T08:13:30;101344.40;;;-4.40
70050;BMP180;57391;51.306;22.680;2022-12-18T08:16:04;101346.20;;;-4.40
70050;BMP180;57391;51.306;22.680;2022-12-18T08:18:37;101347.20;;;-4.48
70050;BMP180;57391;51.306;22.680;2022-12-18T08:21:12;101354.40;;;-4.50
70050;BMP180;57391;51.306;22.680;2022-12-18T08:23:39;101355.00;;;-4.44
70050;BMP180;57391;51.306;22.680;2022-12-18T08:26:06;101359.80;;;-4.40
70050;BMP180;57391;51.306;22.680;2022-12-18T08:28:34;101361.40;;;-4.40
70050;BMP180;57391;51.306;22.680;2022-12-18T08:31:01;101358.40;;;-4.34
70050;BMP180;57391;51.306;22.680;2022-12-18T08:33:27;101369.60;;;-4.30
70050;BMP180;57391;51.306;22.680;2022-12-18T08:35:54;101364.00;;;-4.30
70050;BMP180;57391;51.306;22.680;2022-12-18T08:38:21;101372.80;;;-4.30
70050;BMP180;57391;51.306;22.680;2022-12-18T08:40:59;101380.20;;;-4.30
70050;BMP180;57391;51.306;22.680;2022-12-18T08:43:27;101385.20;;;-4.40
70050;BMP180;57391;51.306;22.680;2022-12-18T08:46:16;101393.00;;;-4.40
70050;BMP180;57391;51.306;22.680;2022-12-18T08:48:42;101401.40;;;-4.40
70050;BMP180;57391;51.306;22.680;2022-12-18T08:51:09;101400.40;;;-4.40
70050;BMP180;57391;51.306;22.680;2022-12-18T08:53:37;101400.00;;;-4.40
70050;BMP180;57391;51.306;22.680;2022-12-18T08:56:04;101402.60;;;-4.38
70050;BMP180;57391;51.306;22.680;2022-12-18T08:58:31;101405.20;;;-4.30
70050;BMP180;57391;51.306;22.680;2022-12-18T09:01:06;101407.20;;;-4.20
70050;BMP180;57391;51.306;22.680;2022-12-18T09:03:33;101408.80;;;-4.20
70050;BMP180;57391;51.306;22.680;2022-12-18T09:05:59;101408.00;;;-4.10
70050;BMP180;57391;51.306;22.680;2022-12-18T09:08:26;101406.00;;;-4.10
70050;BMP180;57391;51.306;22.680;2022-12-18T09:10:53;101411.00;;;-4.10
70050;BMP180;57391;51.306;22.680;2022-12-18T09:13:19;101411.40;;;-4.10
70050;BMP180;57391;51.306;22.680;2022-12-18T09:15:50;101418.20;;;-4.10
70050;BMP180;57391;51.306;22.680;2022-12-18T09:18:21;101421.80;;;-4.08
70050;BMP180;57391;51.306;22.680;2022-12-18T09:20:48;101424.60;;;-4.10
70050;BMP180;57391;51.306;22.680;2022-12-18T09:23:16;101429.40;;;-4.10
70050;BMP180;57391;51.306;22.680;2022-12-18T09:25:42;101438.60;;;-4.10
70050;BMP180;57391;51.306;22.680;2022-12-18T09:28:18;101432.60;;;-4.10
70050;BMP180;57391;51.306;22.680;2022-12-18T09:30:49;101432.60;;;-4.10
70050;BMP180;57391;51.306;22.680;2022-12-18T09:33:16;101436.00;;;-4.08
70050;BMP180;57391;51.306;22.680;2022-12-18T09:35:45;101437.20;;;-4.08
70050;BMP180;57391;51.306;22.680;2022-12-18T09:38:17;101439.40;;;-4.10
70050;BMP180;57391;51.306;22.680;2022-12-18T09:40:54;101449.80;;;-4.20
70050;BMP180;57391;51.306;22.680;2022-12-18T09:43:43;101450.80;;;-4.20
70050;BMP180;57391;51.306;22.680;2022-12-18T09:46:32;101460.60;;;-4.20
70050;BMP180;57391;51.306;22.680;2022-12-18T09:49:03;101465.60;;;-4.30
70050;BMP180;57391;51.306;22.680;2022-12-18T09:52:24;101464.00;;;-4.30
70050;BMP180;57391;51.306;22.680;2022-12-18T09:55:37;101467.00;;;-4.30
70050;BMP180;57391;51.306;22.680;2022-12-18T09:58:41;101465.60;;;-4.20
70050;BMP180;57391;51.306;22.680;2022-12-18T10:01:24;101464.60;;;-4.10
70050;BMP180;57391;51.306;22.680;2022-12-18T10:03:55;101460.60;;;-4.10
70050;BMP180;57391;51.306;22.680;2022-12-18T10:09:50;101455.60;;;-4.10
70050;BMP180;57391;51.306;22.680;2022-12-18T10:12:29;101455.80;;;-4.10
70050;BMP180;57391;51.306;22.680;2022-12-18T10:15:23;101464.60;;;-4.20
70050;BMP180;57391;51.306;22.680;2022-12-18T10:18:05;101476.00;;;-4.10
70050;BMP180;57391;51.306;22.680;2022-12-18T10:20:52;101478.00;;;-4.10
70050;BMP180;57391;51.306;22.680;2022-12-18T10:26:07;101475.40;;;-4.00
70050;BMP180;57391;51.306;22.680;2022-12-18T10:28:38;101474.00;;;-3.98
70050;BMP180;57391;51.306;22.680;2022-12-18T10:31:20;101475.60;;;-3.90
70050;BMP180;57391;51.306;22.680;2022-12-18T10:33:47;101488.00;;;-3.80
70050;BMP180;57391;51.306;22.680;2022-12-18T10:36:14;101479.40;;;-3.80
70050;BMP180;57391;51.306;22.680;2022-12-18T10:38:41;101481.80;;;-3.70
70050;BMP180;57391;51.306;22.680;2022-12-18T10:44:22;101477.60;;;-3.70
70050;BMP180;57391;51.306;22.680;2022-12-18T10:46:55;101476.00;;;-3.70
70050;BMP180;57391;51.306;22.680;2022-12-18T10:49:32;101477.60;;;-3.60
70050;BMP180;57391;51.306;22.680;2022-12-18T10:52:21;101482.00;;;-3.50
70050;BMP180;57391;51.306;22.680;2022-12-18T10:55:03;101487.40;;;-3.48
70050;BMP180;57391;51.306;22.680;2022-12-18T10:57:40;101484.60;;;-3.46
70050;BMP180;57391;51.306;22.680;2022-12-18T11:00:27;101486.60;;;-3.50
70050;BMP180;57391;51.306;22.680;2022-12-18T11:02:58;101487.60;;;-3.50
70050;BMP180;57391;51.306;22.680;2022-12-18T11:05:31;101488.40;;;-3.50
70050;BMP180;57391;51.306;22.680;2022-12-18T11:08:00;101485.20;;;-3.46
70050;BMP180;57391;51.306;22.680;2022-12-18T11:10:37;101487.00;;;-3.40
70050;BMP180;57391;51.306;22.680;2022-12-18T11:13:19;101493.00;;;-3.38
70050;BMP180;57391;51.306;22.680;2022-12-18T11:15:47;101495.60;;;-3.40
70050;BMP180;57391;51.306;22.680;2022-12-18T11:18:22;101498.00;;;-3.40
70050;BMP180;57391;51.306;22.680;2022-12-18T11:21:05;101498.40;;;-3.30
70050;BMP180;57391;51.306;22.680;2022-12-18T11:23:35;101497.00;;;-3.40
70050;BMP180;57391;51.306;22.680;2022-12-18T11:26:05;101506.60;;;-3.40
70050;BMP180;57391;51.306;22.680;2022-12-18T11:29:31;101505.40;;;-3.50
70050;BMP180;57391;51.306;22.680;2022-12-18T11:37:54;101501.60;;;-3.30
70050;BMP180;57391;51.306;22.680;2022-12-18T11:40:35;101515.20;;;-3.30
70050;BMP180;57391;51.306;22.680;2022-12-18T11:43:50;101517.20;;;-3.30
70050;BMP180;57391;51.306;22.680;2022-12-18T11:46:36;101518.00;;;-3.30
70050;BMP180;57391;51.306;22.680;2022-12-18T11:49:36;101528.00;;;-3.30
70050;BMP180;57391;51.306;22.680;2022-12-18T11:52:22;101524.60;;;-3.30
70050;BMP180;57391;51.306;22.680;2022-12-18T11:54:58;101524.20;;;-3.40
70050;BMP180;57391;51.306;22.680;2022-12-18T12:00:28;101520.80;;;-3.40
70050;BMP180;57391;51.306;22.680;2022-12-18T12:08:35;101524.20;;;-3.48
70050;BMP180;57391;51.306;22.680;2022-12-18T12:14:15;101532.20;;;-3.50
70050;BMP180;57391;51.306;22.680;2022-12-18T12:17:28;101532.20;;;-3.50
70050;BMP180;57391;51.306;22.680;2022-12-18T12:20:10;101540.40;;;-3.50
70050;BMP180;57391;51.306;22.680;2022-12-18T12:23:15;101544.40;;;-3.50
70050;BMP180;57391;51.306;22.680;2022-12-18T12:26:01;101545.20;;;-3.48
70050;BMP180;57391;51.306;22.680;2022-12-18T12:28:48;101543.60;;;-3.50
70050;BMP180;57391;51.306;22.680;2022-12-18T12:40:23;101564.40;;;-3.70
70050;BMP180;57391;51.306;22.680;2022-12-18T12:43:05;101561.20;;;-3.70
70050;BMP180;57391;51.306;22.680;2022-12-18T12:46:10;101569.40;;;-3.70
70050;BMP180;57391;51.306;22.680;2022-12-18T12:48:44;101569.20;;;-3.70
70050;BMP180;57391;51.306;22.680;2022-12-18T12:51:21;101572.40;;;-3.62
70050;BMP180;57391;51.306;22.680;2022-12-18T12:53:49;101579.20;;;-3.64
70050;BMP180;57391;51.306;22.680;2022-12-18T12:56:20;101592.20;;;-3.70
70050;BMP180;57391;51.306;22.680;2022-12-18T13:07:39;101620.20;;;-3.80
70050;BMP180;57391;51.306;22.680;2022-12-18T13:15:42;101624.40;;;-3.90
70050;BMP180;57391;51.306;22.680;2022-12-18T13:18:11;101627.80;;;-3.90
70050;BMP180;57391;51.306;22.680;2022-12-18T13:26:00;101644.80;;;-3.90
70050;BMP180;57391;51.306;22.680;2022-12-18T13:34:21;101659.40;;;-4.02
70050;BMP180;57391;51.306;22.680;2022-12-18T13:36:49;101663.20;;;-4.10
70050;BMP180;57391;51.306;22.680;2022-12-18T13:41:48;101681.00;;;-4.20
70050;BMP180;57391;51.306;22.680;2022-12-18T13:44:33;101677.80;;;-4.30
70050;BMP180;57391;51.306;22.680;2022-12-18T13:47:04;101683.40;;;-4.40
70050;BMP180;57391;51.306;22.680;2022-12-18T13:49:43;101693.00;;;-4.40
70050;BMP180;57391;51.306;22.680;2022-12-18T13:54:59;101693.80;;;-4.52
70050;BMP180;57391;51.306;22.680;2022-12-18T13:57:34;101693.40;;;-4.60
70050;BMP180;57391;51.306;22.680;2022-12-18T14:00:29;101691.60;;;-4.60
70050;BMP180;57391;51.306;22.680;2022-12-18T14:02:58;101698.00;;;-4.60
70050;BMP180;57391;51.306;22.680;2022-12-18T14:05:35;101700.40;;;-4.60
70050;BMP180;57391;51.306;22.680;2022-12-18T14:08:10;101704.60;;;-4.60
70050;BMP180;57391;51.306;22.680;2022-12-18T14:10:45;101714.00;;;-4.60
70050;BMP180;57391;51.306;22.680;2022-12-18T14:13:26;101719.80;;;-4.60
70050;BMP180;57391;51.306;22.680;2022-12-18T14:15:56;101720.20;;;-4.50
70050;BMP180;57391;51.306;22.680;2022-12-18T14:18:36;101722.40;;;-4.50
70050;BMP180;57391;51.306;22.680;2022-12-18T14:21:06;101727.60;;;-4.50
70050;BMP180;57391;51.306;22.680;2022-12-18T14:23:41;101738.60;;;-4.50
70050;BMP180;57391;51.306;22.680;2022-12-18T14:26:31;101741.00;;;-4.50
70050;BMP180;57391;51.306;22.680;2022-12-18T14:29:14;101736.60;;;-4.56
70050;BMP180;57391;51.306;22.680;2022-12-18T14:31:43;101737.00;;;-4.60
70050;BMP180;57391;51.306;22.680;2022-12-18T14:34:17;101735.40;;;-4.60
70050;BMP180;57391;51.306;22.680;2022-12-18T14:36:52;101742.00;;;-4.60
70050;BMP180;57391;51.306;22.680;2022-12-18T14:39:20;101746.20;;;-4.60
70050;BMP180;57391;51.306;22.680;2022-12-18T14:41:48;101755.40;;;-4.60
70050;BMP180;57391;51.306;22.680;2022-12-18T14:44:16;101753.80;;;-4.56
70050;BMP180;57391;51.306;22.680;2022-12-18T14:46:44;101746.60;;;-4.52
70050;BMP180;57391;51.306;22.680;2022-12-18T14:49:29;101758.20;;;-4.58
70050;BMP180;57391;51.306;22.680;2022-12-18T14:52:02;101755.80;;;-4.60
70050;BMP180;57391;51.306;22.680;2022-12-18T14:54:31;101755.80;;;-4.68
70050;BMP180;57391;51.306;22.680;2022-12-18T14:59:31;101748.80;;;-4.70
70050;BMP180;57391;51.306;22.680;2022-12-18T15:02:22;101750.60;;;-4.78
70050;BMP180;57391;51.306;22.680;2022-12-18T15:05:17;101755.40;;;-4.80
70050;BMP180;57391;51.306;22.680;2022-12-18T15:07:51;101757.60;;;-4.80
70050;BMP180;57391;51.306;22.680;2022-12-18T15:10:22;101760.60;;;-4.80
70050;BMP180;57391;51.306;22.680;2022-12-18T15:20:55;101767.00;;;-4.80
70050;BMP180;57391;51.306;22.680;2022-12-18T15:26:13;101765.00;;;-4.80
70050;BMP180;57391;51.306;22.680;2022-12-18T15:28:55;101767.00;;;-4.80
70050;BMP180;57391;51.306;22.680;2022-12-18T15:31:34;101767.40;;;-4.90
70050;BMP180;57391;51.306;22.680;2022-12-18T15:34:19;101768.20;;;-5.00
70050;BMP180;57391;51.306;22.680;2022-12-18T15:36:47;101784.40;;;-5.10
70050;BMP180;57391;51.306;22.680;2022-12-18T15:39:14;101784.40;;;-5.12
70050;BMP180;57391;51.306;22.680;2022-12-18T15:41:41;101784.20;;;-5.18
70050;BMP180;57391;51.306;22.680;2022-12-18T15:44:28;101790.80;;;-5.20
70050;BMP180;57391;51.306;22.680;2022-12-18T15:46:55;101789.80;;;-5.30
70050;BMP180;57391;51.306;22.680;2022-12-18T15:49:25;101791.20;;;-5.30
70050;BMP180;57391;51.306;22.680;2022-12-18T15:51:56;101783.20;;;-5.30
70050;BMP180;57391;51.306;22.680;2022-12-18T15:54:24;101783.60;;;-5.30
70050;BMP180;57391;51.306;22.680;2022-12-18T15:57:11;101780.60;;;-5.24
70050;BMP180;57391;51.306;22.680;2022-12-18T15:59:53;101782.60;;;-5.30
70050;BMP180;57391;51.306;22.680;2022-12-18T16:02:23;101790.40;;;-5.30